Time;durP1;ratioP1;P1;durP2;ratioP2;P2;SDS_P1;SDS_P2;PMS_P1;PMS_P2;Temp;Humidity;BMP_temperature;BMP_pressure;BME280_temperature;BME280_humidity;BME280_pressure;Samples;Min_cycle;Max_cycle;Signal;HPM_P1;HPM_P2
2022/06/02 00:00:19;;;;;;;3.53;1.55;;;11.70;75.90;;;;;;4799714;29;20054;-79
2022/06/02 00:03:19;;;;;;;3.15;1.80;;;11.70;76.10;;;;;;4787074;29;20430;-84
2022/06/02 00:05:52;;;;;;;2.00;1.17;;;11.70;76.20;;;;;;4792282;29;20051;-79
2022/06/02 00:08:25;;;;;;;2.17;1.30;;;11.60;76.20;;;;;;4802889;29;20517;-85
2022/06/02 00:10:59;;;;;;;2.35;1.30;;;11.60;76.30;;;;;;4787948;29;20051;-85
2022/06/02 00:13:53;;;;;;;3.35;1.95;;;11.60;76.40;;;;;;4787650;30;20051;-85
2022/06/02 00:16:33;;;;;;;2.10;1.30;;;11.60;76.60;;;;;;4763799;30;20054;-84
2022/06/02 00:19:08;;;;;;;2.38;1.27;;;11.60;76.60;;;;;;4802442;29;20058;-84
2022/06/02 00:21:54;;;;;;;1.90;1.00;;;11.50;76.60;;;;;;4786966;29;20055;-84
2022/06/02 00:24:44;;;;;;;1.67;0.95;;;11.50;76.70;;;;;;4803168;29;20071;-84
2022/06/02 00:27:28;;;;;;;2.45;1.17;;;11.50;76.80;;;;;;4786502;29;20051;-85
2022/06/02 00:30:19;;;;;;;1.60;0.70;;;11.50;76.90;;;;;;4801679;29;20085;-85
2022/06/02 00:33:23;;;;;;;2.53;1.50;;;11.50;77.00;;;;;;4786568;29;20059;-84
2022/06/02 00:35:57;;;;;;;1.55;0.80;;;11.40;77.20;;;;;;4800416;29;20387;-85
2022/06/02 00:38:34;;;;;;;4.07;1.70;;;11.40;77.20;;;;;;4800532;29;20051;-85
2022/06/02 00:41:34;;;;;;;3.33;1.65;;;11.40;77.40;;;;;;4780909;29;20059;-85
2022/06/02 00:44:15;;;;;;;2.85;1.42;;;11.30;77.60;;;;;;4770813;30;20059;-84
2022/06/02 00:46:58;;;;;;;3.03;1.70;;;11.30;77.70;;;;;;4786291;29;20089;-85
2022/06/02 00:49:50;;;;;;;2.95;1.60;;;11.20;77.80;;;;;;4786349;29;20067;-84
2022/06/02 00:52:29;;;;;;;3.70;1.90;;;11.20;77.90;;;;;;4783620;29;20476;-85
2022/06/02 00:58:14;;;;;;;3.05;1.75;;;11.10;78.20;;;;;;4788058;29;20506;-84
2022/06/02 01:00:48;;;;;;;3.28;2.00;;;11.10;78.30;;;;;;4796872;29;20111;-84
2022/06/02 01:03:26;;;;;;;2.33;1.45;;;11.00;78.40;;;;;;4784445;30;20089;-85
2022/06/02 01:06:08;;;;;;;2.45;1.60;;;11.00;78.40;;;;;;4795786;29;20054;-84
2022/06/02 01:08:47;;;;;;;2.50;1.30;;;11.00;78.50;;;;;;4801285;29;20052;-85
2022/06/02 01:11:25;;;;;;;2.45;1.55;;;11.00;78.60;;;;;;4786129;30;20043;-85
2022/06/02 01:14:12;;;;;;;3.17;1.80;;;11.00;78.60;;;;;;4786184;29;20133;-85
2022/06/02 01:16:44;;;;;;;2.35;1.10;;;11.00;78.80;;;;;;4801501;29;20517;-84
2022/06/02 01:19:17;;;;;;;3.38;1.42;;;11.00;78.80;;;;;;4781379;29;20071;-85
2022/06/02 01:21:59;;;;;;;3.10;1.70;;;11.00;78.80;;;;;;4786609;29;20453;-85
2022/06/02 01:24:48;;;;;;;2.45;1.45;;;11.00;78.90;;;;;;4798663;29;20395;-84
2022/06/02 01:27:20;;;;;;;2.97;1.73;;;11.00;79.10;;;;;;4801949;29;20105;-84
2022/06/02 01:30:29;;;;;;;2.30;1.20;;;10.90;79.10;;;;;;4786894;29;20487;-84
2022/06/02 01:33:31;;;;;;;2.28;1.10;;;11.00;79.20;;;;;;4779154;29;20046;-84
2022/06/02 01:36:17;;;;;;;2.60;1.20;;;10.90;79.20;;;;;;4768378;30;20106;-84
2022/06/02 01:39:01;;;;;;;2.17;0.98;;;10.90;79.40;;;;;;4787791;29;20142;-84
2022/06/02 01:41:36;;;;;;;2.10;1.23;;;10.90;79.50;;;;;;4772170;30;20106;-85
2022/06/02 01:44:22;;;;;;;2.67;1.38;;;10.80;79.50;;;;;;4786638;30;20051;-84
2022/06/02 01:47:02;;;;;;;3.08;1.40;;;10.80;79.60;;;;;;4786677;29;20047;-84
2022/06/02 01:49:38;;;;;;;2.35;1.65;;;10.80;79.70;;;;;;4791880;29;20066;-84
2022/06/02 01:52:14;;;;;;;3.85;2.38;;;10.80;79.80;;;;;;4801344;29;20059;-84
2022/06/02 01:55:14;;;;;;;3.13;2.00;;;10.70;80.10;;;;;;4796243;29;20063;-84
2022/06/02 01:58:05;;;;;;;3.30;1.83;;;10.70;80.00;;;;;;4786638;29;20055;-84
2022/06/02 02:00:34;;;;;;;2.70;1.45;;;10.70;80.00;;;;;;4786233;30;20059;-84
2022/06/02 02:03:10;;;;;;;3.45;2.20;;;10.70;80.10;;;;;;4797062;29;20046;-84
2022/06/02 02:05:56;;;;;;;2.97;1.70;;;10.60;80.20;;;;;;4789089;29;20047;-84
2022/06/02 02:08:26;;;;;;;3.65;1.70;;;10.70;80.30;;;;;;4804472;29;20059;-84
2022/06/02 02:11:14;;;;;;;2.67;1.52;;;10.60;80.30;;;;;;4788946;30;20058;-79
2022/06/02 02:13:45;;;;;;;2.83;1.60;;;10.60;80.50;;;;;;4788552;29;20124;-78
2022/06/02 02:16:30;;;;;;;2.17;1.13;;;10.50;80.40;;;;;;4788642;30;20051;-79
2022/06/02 02:19:33;;;;;;;2.55;1.30;;;10.50;80.50;;;;;;4803831;29;20472;-78
2022/06/02 02:22:07;;;;;;;2.50;1.30;;;10.60;80.60;;;;;;4788528;30;20055;-78
2022/06/02 02:25:02;;;;;;;2.83;1.35;;;10.50;80.70;;;;;;4773483;30;20533;-78
2022/06/02 02:28:02;;;;;;;2.38;1.27;;;10.50;80.80;;;;;;4803858;29;20487;-78
2022/06/02 02:31:10;;;;;;;2.67;1.50;;;10.40;80.80;;;;;;4788712;29;20054;-78
2022/06/02 02:33:56;;;;;;;3.20;1.80;;;10.40;81.00;;;;;;4798189;29;20063;-78
2022/06/02 02:36:46;;;;;;;3.30;1.73;;;10.40;81.10;;;;;;4788549;30;20082;-78
2022/06/02 02:39:50;;;;;;;2.92;1.63;;;10.40;81.20;;;;;;4802667;29;20088;-78
2022/06/02 02:42:33;;;;;;;3.30;1.95;;;10.40;81.20;;;;;;4812197;29;20104;-78
2022/06/02 02:45:18;;;;;;;;;;;10.30;81.30;;;;;;4795125;29;20130;-78
2022/06/02 02:47:59;;;;;;;2.78;1.38;;;10.30;81.20;;;;;;4796899;29;19925;-78
2022/06/02 02:50:33;;;;;;;3.08;1.63;;;10.20;81.30;;;;;;4779796;29;20054;-79
2022/06/02 02:53:24;;;;;;;3.35;1.95;;;10.20;81.30;;;;;;4790183;29;20101;-79
2022/06/02 02:56:01;;;;;;;2.90;1.73;;;10.20;81.30;;;;;;4784829;29;20060;-78
2022/06/02 02:58:44;;;;;;;4.30;2.35;;;10.20;81.50;;;;;;4758031;30;20580;-79
2022/06/02 03:01:24;;;;;;;3.63;1.98;;;10.20;81.50;;;;;;4785135;30;20056;-78
2022/06/02 03:04:12;;;;;;;3.97;2.40;;;10.10;81.60;;;;;;4762732;30;20851;-78
2022/06/02 03:06:42;;;;;;;3.83;2.15;;;10.10;81.80;;;;;;4784543;29;20051;-80
2022/06/02 03:09:29;;;;;;;3.67;2.10;;;10.10;81.80;;;;;;4770256;30;20106;-78
2022/06/02 03:12:10;;;;;;;2.45;1.35;;;10.10;81.80;;;;;;4769919;30;20059;-78
2022/06/02 03:14:58;;;;;;;2.92;1.50;;;10.10;81.80;;;;;;4770268;30;20082;-79
2022/06/02 03:18:04;;;;;;;2.80;1.67;;;10.10;81.80;;;;;;4772105;30;20052;-78
2022/06/02 03:21:06;;;;;;;2.38;1.25;;;10.10;81.90;;;;;;4784918;30;20059;-78
2022/06/02 03:23:57;;;;;;;3.42;1.90;;;10.00;81.80;;;;;;4751085;30;20124;-78
2022/06/02 03:26:30;;;;;;;2.72;1.40;;;10.00;82.00;;;;;;4756289;30;20426;-78
2022/06/02 03:29:22;;;;;;;2.83;1.58;;;10.00;82.10;;;;;;4784762;30;20056;-79
2022/06/02 03:31:55;;;;;;;2.28;1.08;;;10.00;82.10;;;;;;4777356;30;20091;-78
2022/06/02 03:34:50;;;;;;;2.85;1.45;;;10.00;82.10;;;;;;4780344;30;20525;-78
2022/06/02 03:37:41;;;;;;;3.15;1.50;;;10.10;82.20;;;;;;4755042;30;20048;-78
2022/06/02 03:40:20;;;;;;;3.00;1.45;;;10.00;82.20;;;;;;4767538;30;20076;-78
2022/06/02 03:42:55;;;;;;;2.78;1.48;;;10.00;82.20;;;;;;4786307;29;20056;-78
2022/06/02 03:46:01;;;;;;;2.67;1.50;;;10.00;82.30;;;;;;4791206;29;20048;-78
2022/06/02 03:49:09;;;;;;;3.88;2.00;;;10.00;82.30;;;;;;4760629;30;20047;-77
2022/06/02 03:51:53;;;;;;;2.25;1.40;;;10.00;82.40;;;;;;4794936;29;20062;-78
2022/06/02 03:54:33;;;;;;;3.85;1.80;;;10.10;82.50;;;;;;4802918;29;20051;-78
2022/06/02 03:57:20;;;;;;;3.50;1.95;;;10.10;82.50;;;;;;4799205;29;20086;-78
2022/06/02 04:00:07;;;;;;;3.08;1.83;;;10.10;82.50;;;;;;4794571;29;20059;-84
2022/06/02 04:02:48;;;;;;;3.17;1.45;;;10.10;82.50;;;;;;4796319;29;20840;-86
2022/06/02 04:05:42;;;;;;;2.63;1.50;;;10.10;82.50;;;;;;4775692;30;20051;-84
2022/06/02 04:08:46;;;;;;;2.40;1.38;;;10.10;82.50;;;;;;4789199;29;20058;-84
2022/06/02 04:14:55;;;;;;;3.00;1.67;;;10.20;82.50;;;;;;4787472;30;20097;-84
2022/06/02 04:17:26;;;;;;;2.90;1.58;;;10.20;82.50;;;;;;4787425;30;20058;-78
2022/06/02 04:20:34;;;;;;;3.03;1.75;;;10.20;83.20;;;;;;4801749;29;20063;-77
2022/06/02 04:23:22;;;;;;;2.92;1.70;;;10.20;82.60;;;;;;4777174;30;20063;-78
2022/06/02 04:26:27;;;;;;;3.63;2.00;;;10.30;82.70;;;;;;4786557;29;20514;-78
2022/06/02 04:29:19;;;;;;;2.97;1.67;;;10.30;82.70;;;;;;4798334;29;20052;-78
2022/06/02 04:31:48;;;;;;;3.00;1.67;;;10.30;82.70;;;;;;4765928;30;20573;-78
2022/06/02 04:34:29;;;;;;;2.88;1.58;;;10.40;82.60;;;;;;4801642;29;20054;-78
2022/06/02 04:37:17;;;;;;;3.45;1.67;;;10.40;82.60;;;;;;4809042;29;20058;-79
2022/06/02 04:40:06;;;;;;;3.70;1.90;;;10.50;82.70;;;;;;4788741;29;20102;-78
2022/06/02 04:43:03;;;;;;;4.03;2.25;;;10.50;82.60;;;;;;4801344;29;20088;-77
2022/06/02 04:45:45;;;;;;;2.65;1.42;;;10.60;82.70;;;;;;4791002;29;20055;-77
2022/06/02 04:48:37;;;;;;;3.47;1.40;;;10.60;82.70;;;;;;4786057;29;20075;-78
2022/06/02 04:51:16;;;;;;;2.67;1.63;;;10.60;82.60;;;;;;4783642;30;20052;-82
2022/06/02 04:54:10;;;;;;;3.47;1.73;;;10.70;82.60;;;;;;4798623;29;20051;-82
2022/06/02 04:57:03;;;;;;;3.13;1.58;;;10.80;82.60;;;;;;4797734;29;20082;-83
2022/06/02 04:59:57;;;;;;;3.95;1.85;;;10.90;82.50;;;;;;4786364;29;20075;-83
2022/06/02 05:02:52;;;;;;;3.10;1.65;;;11.00;82.50;;;;;;4786371;30;20506;-78
2022/06/02 05:05:42;;;;;;;2.42;1.70;;;11.10;82.40;;;;;;4786075;30;20455;-84
2022/06/02 05:08:36;;;;;;;3.00;1.60;;;11.10;82.20;;;;;;4795118;29;20464;-83
2022/06/02 05:11:31;;;;;;;3.67;1.95;;;11.30;82.20;;;;;;4786773;29;20454;-83
2022/06/02 05:14:15;;;;;;;3.80;2.05;;;11.30;82.00;;;;;;4786228;29;20493;-83
2022/06/02 05:16:56;;;;;;;3.70;1.83;;;11.40;82.00;;;;;;4801388;29;20075;-82
2022/06/02 05:20:05;;;;;;;2.90;1.43;;;11.50;81.90;;;;;;4790104;29;20108;-82
2022/06/02 05:22:54;;;;;;;7.65;2.03;;;11.60;81.80;;;;;;4766969;30;20059;-82
2022/06/02 05:25:50;;;;;;;4.13;2.10;;;11.70;81.70;;;;;;4800236;29;20051;-82
2022/06/02 05:28:55;;;;;;;2.92;1.70;;;11.80;81.60;;;;;;4797739;29;20051;-83
2022/06/02 05:31:45;;;;;;;3.08;1.33;;;11.90;81.40;;;;;;4786773;29;20055;-83
2022/06/02 05:34:12;;;;;;;3.05;1.80;;;12.10;81.10;;;;;;4800824;29;20047;-81
2022/06/02 05:36:46;;;;;;;3.80;2.28;;;12.20;81.00;;;;;;4798075;29;20047;-81
2022/06/02 05:39:40;;;;;;;4.95;3.00;;;12.30;80.80;;;;;;4787189;29;20150;-82
2022/06/02 05:42:18;;;;;;;6.50;2.83;;;12.50;80.70;;;;;;4794082;29;20058;-82
2022/06/02 05:45:11;;;;;;;6.60;3.25;;;12.60;80.60;;;;;;4789019;29;20189;-82
2022/06/02 05:47:41;;;;;;;;;;;12.80;80.40;;;;;;4775037;30;20039;-82
2022/06/02 05:50:32;;;;;;;4.53;2.25;;;12.80;80.20;;;;;;4774070;30;19926;-82
2022/06/02 05:53:27;;;;;;;5.50;2.60;;;12.90;80.10;;;;;;4799464;29;20079;-81
2022/06/02 05:56:03;;;;;;;4.60;2.88;;;13.10;80.00;;;;;;4789052;29;20081;-82
2022/06/02 05:58:55;;;;;;;5.07;2.60;;;13.20;79.90;;;;;;4788547;29;20071;-82
2022/06/02 06:01:42;;;;;;;4.85;2.97;;;13.30;79.80;;;;;;4789032;30;20047;-82
2022/06/02 06:04:22;;;;;;;4.57;2.95;;;13.40;79.70;;;;;;4793269;29;20070;-78
2022/06/02 06:06:57;;;;;;;4.55;2.92;;;13.50;79.70;;;;;;4800290;29;20507;-83
2022/06/02 06:09:33;;;;;;;3.88;2.42;;;13.60;79.60;;;;;;4779811;29;20067;-81
2022/06/02 06:12:12;;;;;;;3.30;2.05;;;13.70;79.50;;;;;;4804523;29;20065;-81
2022/06/02 06:14:58;;;;;;;4.25;2.38;;;13.80;79.40;;;;;;4788351;29;20090;-80
2022/06/02 06:17:36;;;;;;;4.22;2.38;;;14.00;79.20;;;;;;4788342;29;20058;-81
2022/06/02 06:20:35;;;;;;;4.05;1.92;;;14.10;79.10;;;;;;4802664;29;20158;-82
2022/06/02 06:23:23;;;;;;;4.00;1.75;;;14.30;78.80;;;;;;4794942;29;20107;-81
2022/06/02 06:25:53;;;;;;;3.47;2.05;;;14.40;78.50;;;;;;4787902;29;20073;-84
2022/06/02 06:28:23;;;;;;;4.55;1.63;;;14.50;78.30;;;;;;4773898;30;20088;-83
2022/06/02 06:30:59;;;;;;;3.38;1.65;;;14.70;78.10;;;;;;4803917;29;20047;-82
2022/06/02 06:33:52;;;;;;;1.63;0.82;;;14.70;77.90;;;;;;4804428;29;20413;-83
2022/06/02 06:36:34;;;;;;;2.75;1.10;;;14.90;77.80;;;;;;4787952;30;20081;-82
2022/06/02 06:39:22;;;;;;;2.70;1.35;;;14.90;77.50;;;;;;4795266;29;20122;-82
2022/06/02 06:42:17;;;;;;;3.40;1.30;;;14.90;77.40;;;;;;4799523;29;20055;-82
2022/06/02 06:45:13;;;;;;;3.28;2.00;;;15.00;77.10;;;;;;4811569;29;20051;-82
2022/06/02 06:47:58;;;;;;;2.72;1.60;;;14.90;76.90;;;;;;4787993;29;20047;-83
2022/06/02 06:50:50;;;;;;;3.05;1.42;;;14.80;77.00;;;;;;4776283;29;20066;-84
2022/06/02 06:53:36;;;;;;;2.08;1.10;;;14.90;77.10;;;;;;4770175;30;20491;-84
2022/06/02 06:56:15;;;;;;;2.28;1.20;;;15.10;76.90;;;;;;4788524;30;20138;-83
2022/06/02 06:58:58;;;;;;;3.17;1.02;;;15.10;76.60;;;;;;4788754;29;20047;-78
2022/06/02 07:02:08;;;;;;;2.40;1.30;;;15.30;76.40;;;;;;4797197;29;20116;-76
2022/06/02 07:04:54;;;;;;;3.13;1.00;;;15.40;76.20;;;;;;4769666;30;20085;-76
2022/06/02 07:07:36;;;;;;;3.42;1.40;;;15.40;76.20;;;;;;4800255;29;20058;-76
2022/06/02 07:10:26;;;;;;;4.63;1.60;;;15.30;76.00;;;;;;4802267;29;20131;-76
2022/06/02 07:13:22;;;;;;;4.07;1.45;;;15.30;75.90;;;;;;4787845;29;20051;-76
2022/06/02 07:16:28;;;;;;;2.95;1.73;;;15.40;75.60;;;;;;4800187;29;20518;-85
2022/06/02 07:18:58;;;;;;;2.80;1.02;;;15.30;75.30;;;;;;4800746;29;20404;-84
2022/06/02 07:21:41;;;;;;;1.95;0.80;;;15.30;75.50;;;;;;4787911;30;20050;-84
2022/06/02 07:24:23;;;;;;;2.47;0.80;;;15.40;75.30;;;;;;4787574;29;20083;-84
2022/06/02 07:27:12;;;;;;;2.10;0.80;;;15.30;75.00;;;;;;4810881;29;20049;-84
2022/06/02 07:30:03;;;;;;;1.65;0.93;;;15.30;75.00;;;;;;4798432;29;20058;-83
2022/06/02 07:32:45;;;;;;;1.70;0.60;;;15.40;74.80;;;;;;4787801;29;20516;-83
2022/06/02 07:35:52;;;;;;;3.30;1.10;;;15.60;74.40;;;;;;4784704;30;20051;-83
2022/06/02 07:38:42;;;;;;;1.75;0.60;;;15.80;73.80;;;;;;4802037;29;20502;-82
2022/06/02 07:41:19;;;;;;;1.77;0.85;;;15.70;74.20;;;;;;4787350;29;20116;-78
2022/06/02 07:44:04;;;;;;;1.77;1.17;;;15.70;73.40;;;;;;4787117;29;20395;-78
2022/06/02 07:47:01;;;;;;;2.95;1.05;;;15.70;73.40;;;;;;4787160;29;20054;-77
2022/06/02 07:49:47;;;;;;;3.38;1.15;;;15.60;73.20;;;;;;4802099;29;20066;-80
2022/06/02 07:52:37;;;;;;;1.40;0.80;;;15.60;73.30;;;;;;4798562;29;20467;-83
2022/06/02 07:55:31;;;;;;;1.40;0.80;;;15.50;73.40;;;;;;4785941;29;20047;-82
2022/06/02 07:58:21;;;;;;;1.02;0.55;;;15.50;73.20;;;;;;4786253;29;20105;-81
2022/06/02 08:01:00;;;;;;;1.27;0.70;;;15.50;73.30;;;;;;4800874;29;20510;-81
2022/06/02 08:03:33;;;;;;;1.80;0.90;;;15.60;73.20;;;;;;4802065;29;20558;-81
2022/06/02 08:06:33;;;;;;;1.60;0.95;;;15.80;72.60;;;;;;4802367;29;20059;-83
2022/06/02 08:09:31;;;;;;;1.30;0.70;;;16.20;72.20;;;;;;4763799;30;20216;-83
2022/06/02 08:12:03;;;;;;;2.13;0.77;;;16.60;71.60;;;;;;4788391;29;20043;-82
2022/06/02 08:14:45;;;;;;;2.10;0.70;;;16.90;71.10;;;;;;4774944;29;20059;-81
2022/06/02 08:17:21;;;;;;;1.63;0.75;;;17.20;70.50;;;;;;4787040;29;20062;-82
2022/06/02 08:20:05;;;;;;;2.65;0.70;;;17.50;70.10;;;;;;4788300;30;20133;-82
2022/06/02 08:22:50;;;;;;;1.30;0.70;;;17.70;69.40;;;;;;4787345;29;20054;-82
2022/06/02 08:25:24;;;;;;;3.63;0.70;;;17.90;68.80;;;;;;4786977;30;20096;-81
2022/06/02 08:28:14;;;;;;;2.10;0.63;;;18.10;68.60;;;;;;4788163;29;20072;-87
2022/06/02 08:31:10;;;;;;;2.10;0.60;;;18.30;68.10;;;;;;4806977;29;20050;-82
2022/06/02 08:33:59;;;;;;;1.80;0.60;;;18.50;67.70;;;;;;4791756;29;20035;-80
2022/06/02 08:36:30;;;;;;;2.30;0.40;;;18.70;67.00;;;;;;4819331;29;20071;-82
2022/06/02 08:43:03;;;;;;;1.25;0.60;;;18.60;66.20;;;;;;4783228;30;20052;-83
2022/06/02 08:45:39;;;;;;;1.30;0.60;;;18.60;66.60;;;;;;4747750;30;20121;-85
2022/06/02 08:48:39;;;;;;;1.30;0.70;;;18.40;66.20;;;;;;4787192;29;20153;-78
2022/06/02 08:52:00;;;;;;;1.83;0.70;;;18.10;66.00;;;;;;4801894;29;20495;-81
2022/06/02 08:55:24;;;;;;;1.92;0.98;;;17.90;65.50;;;;;;4754399;30;20422;-82
2022/06/02 08:58:32;;;;;;;1.23;0.35;;;17.90;65.30;;;;;;4800950;29;20533;-82
2022/06/02 09:01:27;;;;;;;2.60;0.70;;;18.10;64.90;;;;;;4779153;30;20464;-83
2022/06/02 09:04:25;;;;;;;1.02;0.35;;;18.30;64.20;;;;;;4806908;29;20057;-83
2022/06/02 09:07:05;;;;;;;1.42;0.38;;;18.40;63.50;;;;;;4772276;29;20065;-81
2022/06/02 09:10:22;;;;;;;0.50;0.38;;;18.40;63.60;;;;;;4795810;29;20413;-81
2022/06/02 09:12:55;;;;;;;0.77;0.35;;;18.20;63.80;;;;;;4793996;29;20528;-80
2022/06/02 09:15:46;;;;;;;0.57;0.22;;;18.30;63.80;;;;;;4799549;29;20043;-81
2022/06/02 09:18:32;;;;;;;0.40;0.30;;;18.50;63.90;;;;;;4785967;30;20136;-80
2022/06/02 09:21:32;;;;;;;0.70;0.30;;;18.60;62.90;;;;;;4817388;29;20111;-81
2022/06/02 09:24:26;;;;;;;1.52;0.40;;;18.90;62.00;;;;;;4800490;29;20070;-80
2022/06/02 09:26:53;;;;;;;;;;;19.10;60.80;;;;;;4795080;29;20104;-80
2022/06/02 09:29:31;;;;;;;1.60;0.30;;;19.30;61.10;;;;;;4787672;29;19926;-80
2022/06/02 09:32:02;;;;;;;0.70;0.30;;;19.50;60.70;;;;;;4787223;29;20051;-80
2022/06/02 09:34:41;;;;;;;1.25;0.57;;;19.70;60.40;;;;;;4788861;29;20045;-80
2022/06/02 09:37:45;;;;;;;1.17;0.30;;;20.00;59.90;;;;;;4810121;29;20104;-80
2022/06/02 09:40:24;;;;;;;1.35;0.50;;;20.20;59.50;;;;;;4789248;29;20056;-80
2022/06/02 09:43:03;;;;;;;0.68;0.30;;;20.20;58.70;;;;;;4785764;29;20134;-82
2022/06/02 09:45:54;;;;;;;2.10;0.43;;;20.10;58.90;;;;;;4785837;30;20157;-82
2022/06/02 09:49:12;;;;;;;1.52;0.30;;;19.80;58.80;;;;;;4789532;29;20059;-82
2022/06/02 09:51:47;;;;;;;1.10;0.30;;;19.30;59.30;;;;;;4801356;29;20043;-78
2022/06/02 09:54:47;;;;;;;0.98;0.22;;;19.00;59.80;;;;;;4808953;29;20154;-84
2022/06/02 09:57:56;;;;;;;0.40;0.30;;;18.70;59.70;;;;;;4789233;29;20066;-78
2022/06/02 10:00:39;;;;;;;0.38;0.28;;;18.40;59.90;;;;;;4796517;29;20097;-79
2022/06/02 10:03:42;;;;;;;1.33;0.30;;;18.60;60.40;;;;;;4785355;29;20043;-79
2022/06/02 10:06:30;;;;;;;0.80;0.25;;;18.90;59.10;;;;;;4794976;29;20047;-80
2022/06/02 10:08:58;;;;;;;0.35;0.25;;;19.30;58.70;;;;;;4806441;29;20047;-79
2022/06/02 10:11:34;;;;;;;0.45;0.38;;;19.50;58.10;;;;;;4785356;29;20513;-79
2022/06/02 10:14:19;;;;;;;0.65;0.43;;;19.70;57.80;;;;;;4800122;29;20059;-77
2022/06/02 10:17:23;;;;;;;1.88;0.50;;;19.80;56.00;;;;;;4786984;29;20075;-78
2022/06/02 10:20:12;;;;;;;2.10;0.50;;;19.90;56.20;;;;;;4789510;29;20083;-77
2022/06/02 10:23:04;;;;;;;0.70;0.40;;;20.20;55.60;;;;;;4797847;29;20059;-77
2022/06/02 10:25:56;;;;;;;0.85;0.50;;;20.50;55.70;;;;;;4798675;29;20280;-78
2022/06/02 10:28:50;;;;;;;0.52;0.38;;;20.60;55.00;;;;;;4814912;29;20052;-78
2022/06/02 10:31:35;;;;;;;1.02;0.45;;;20.80;54.90;;;;;;4773804;30;20083;-77
2022/06/02 10:34:27;;;;;;;0.85;0.32;;;21.10;54.80;;;;;;4792143;29;20051;-79
2022/06/02 10:37:17;;;;;;;0.82;0.30;;;21.30;53.90;;;;;;4785537;29;20059;-79
2022/06/02 10:40:23;;;;;;;0.52;0.32;;;21.20;53.30;;;;;;4773589;30;20116;-78
2022/06/02 10:43:05;;;;;;;0.55;0.30;;;21.20;53.40;;;;;;4773563;29;20096;-80
2022/06/02 10:45:35;;;;;;;1.10;0.10;;;20.90;53.60;;;;;;4808491;29;20496;-76
2022/06/02 10:48:09;;;;;;;1.55;0.30;;;20.90;53.90;;;;;;4788010;29;20047;-77
2022/06/02 10:51:11;;;;;;;0.85;0.30;;;21.00;53.60;;;;;;4803529;29;20495;-77
2022/06/02 10:53:39;;;;;;;;;;;21.10;52.60;;;;;;4793619;29;20054;-77
2022/06/02 10:56:09;;;;;;;0.63;0.22;;;21.10;53.00;;;;;;4807732;29;19983;-78
2022/06/02 10:58:51;;;;;;;0.73;0.30;;;21.10;53.30;;;;;;4786878;29;20502;-79
2022/06/02 11:01:34;;;;;;;0.52;0.20;;;21.30;53.30;;;;;;4798841;29;20540;-78
2022/06/02 11:04:23;;;;;;;1.55;0.43;;;21.40;53.00;;;;;;4782425;29;20047;-83
2022/06/02 11:07:23;;;;;;;0.60;0.30;;;21.40;52.30;;;;;;4806747;29;20138;-82
2022/06/02 11:10:22;;;;;;;1.02;0.55;;;21.40;52.20;;;;;;4803147;29;20059;-80
2022/06/02 11:13:07;;;;;;;1.20;0.45;;;21.30;51.60;;;;;;4803288;29;20078;-82
2022/06/02 11:15:43;;;;;;;1.63;0.43;;;21.20;51.30;;;;;;4803024;29;20363;-78
2022/06/02 11:18:13;;;;;;;1.10;0.60;;;21.00;51.20;;;;;;4787222;29;20055;-77
2022/06/02 11:20:52;;;;;;;0.45;0.30;;;20.80;51.10;;;;;;4786070;29;20059;-79
2022/06/02 11:23:42;;;;;;;0.80;0.40;;;20.80;51.80;;;;;;4792145;29;20055;-81
2022/06/02 11:26:43;;;;;;;1.50;0.43;;;20.90;51.70;;;;;;4801778;29;20065;-81
2022/06/02 11:29:35;;;;;;;0.38;0.38;;;21.20;51.20;;;;;;4787708;29;20055;-81
2022/06/02 11:32:29;;;;;;;0.82;0.30;;;21.20;51.40;;;;;;4799981;29;20489;-80
2022/06/02 11:35:28;;;;;;;0.63;0.20;;;21.30;51.20;;;;;;4795602;29;20058;-81
2022/06/02 11:38:07;;;;;;;0.25;0.20;;;21.20;51.10;;;;;;4788110;29;20082;-81
2022/06/02 11:41:02;;;;;;;0.82;0.30;;;20.80;51.30;;;;;;4790921;29;20047;-79
2022/06/02 11:43:52;;;;;;;0.90;0.30;;;20.60;51.80;;;;;;4794254;29;20043;-81
2022/06/02 11:46:50;;;;;;;0.75;0.30;;;20.80;51.20;;;;;;4777037;30;20048;-82
2022/06/02 11:49:35;;;;;;;0.60;0.25;;;21.20;50.90;;;;;;4812528;29;20466;-81
2022/06/02 11:52:18;;;;;;;0.52;0.20;;;21.50;50.30;;;;;;4800984;29;20073;-81
2022/06/02 11:55:16;;;;;;;0.40;0.20;;;22.10;50.00;;;;;;4786706;30;20047;-81
2022/06/02 11:58:05;;;;;;;0.43;0.10;;;22.60;49.40;;;;;;4786949;30;20054;-81
2022/06/02 12:01:01;;;;;;;0.55;0.20;;;23.10;48.90;;;;;;4790208;29;20055;-80
2022/06/02 12:03:43;;;;;;;0.45;0.15;;;23.70;48.10;;;;;;4778711;30;20055;-80
2022/06/02 12:06:16;;;;;;;0.50;0.20;;;24.10;47.90;;;;;;4792142;29;20146;-81
2022/06/02 12:09:10;;;;;;;0.15;0.10;;;24.50;47.40;;;;;;4786709;30;20055;-80
2022/06/02 12:12:04;;;;;;;0.10;0.10;;;24.90;47.10;;;;;;4786930;30;20048;-80
2022/06/02 12:15:05;;;;;;;0.20;0.10;;;25.40;47.00;;;;;;4754222;29;20062;-78
2022/06/02 12:17:55;;;;;;;0.57;0.28;;;25.60;46.50;;;;;;4789719;29;20051;-78
2022/06/02 12:20:40;;;;;;;0.30;0.10;;;25.80;45.70;;;;;;4786885;29;20059;-79
2022/06/02 12:23:39;;;;;;;0.20;0.10;;;26.20;45.70;;;;;;4793251;29;20066;-82
2022/06/02 12:26:44;;;;;;;0.28;0.20;;;26.10;45.50;;;;;;4799175;29;20112;-81
2022/06/02 12:29:58;;;;;;;0.50;0.20;;;25.90;45.80;;;;;;4802010;29;20130;-81
2022/06/02 12:32:46;;;;;;;0.40;0.22;;;25.80;45.70;;;;;;4740528;30;20071;-81
2022/06/02 12:35:28;;;;;;;0.10;0.10;;;25.70;46.10;;;;;;4771063;30;20070;-79
2022/06/02 12:38:20;;;;;;;0.60;0.28;;;25.30;46.30;;;;;;4783276;30;20066;-80
2022/06/02 12:41:11;;;;;;;0.43;0.20;;;24.80;46.40;;;;;;4786632;29;20047;-79
2022/06/02 12:43:55;;;;;;;0.60;0.22;;;24.40;47.00;;;;;;4790218;29;20086;-80
2022/06/02 12:47:09;;;;;;;0.47;0.20;;;24.40;47.30;;;;;;4786096;30;20047;-79
2022/06/02 12:49:50;;;;;;;0.75;0.20;;;24.20;47.10;;;;;;4766267;29;20410;-81
2022/06/02 12:52:41;;;;;;;1.88;0.30;;;24.20;47.00;;;;;;4786534;30;20138;-82
2022/06/02 12:55:19;;;;;;;0.40;0.30;;;24.70;46.50;;;;;;4772111;30;20062;-81
2022/06/02 12:58:14;;;;;;;0.88;0.40;;;24.80;45.90;;;;;;4782782;30;20051;-80
2022/06/02 13:01:22;;;;;;;1.30;0.32;;;24.90;45.50;;;;;;4809122;29;20057;-82
2022/06/02 13:04:08;;;;;;;0.73;0.30;;;25.40;44.70;;;;;;4785411;30;20055;-81
2022/06/02 13:06:52;;;;;;;0.50;0.30;;;25.40;44.60;;;;;;4796859;29;20066;-80
2022/06/02 13:09:48;;;;;;;0.60;0.30;;;25.00;45.00;;;;;;4783959;30;20162;-80
2022/06/02 13:12:45;;;;;;;0.60;0.32;;;24.60;45.40;;;;;;4787264;29;20127;-82
2022/06/02 13:15:33;;;;;;;0.68;0.20;;;25.20;45.20;;;;;;4774707;30;20116;-81
2022/06/02 13:18:33;;;;;;;0.82;0.20;;;25.40;44.30;;;;;;4806720;29;20045;-81
2022/06/02 13:21:37;;;;;;;0.90;0.20;;;25.00;44.50;;;;;;4805898;29;20441;-79
2022/06/02 13:24:22;;;;;;;0.38;0.20;;;25.80;44.20;;;;;;4775760;29;20122;-80
2022/06/02 13:27:04;;;;;;;0.40;0.20;;;27.30;43.20;;;;;;4792515;29;20577;-85
2022/06/02 13:30:13;;;;;;;0.43;0.20;;;28.20;42.00;;;;;;4786253;29;20082;-84
2022/06/02 13:33:13;;;;;;;0.38;0.20;;;29.00;41.30;;;;;;4785083;30;20059;-85
2022/06/02 13:36:27;;;;;;;0.20;0.13;;;30.00;40.80;;;;;;4802223;29;20166;-84
2022/06/02 13:39:26;;;;;;;0.50;0.20;;;30.80;39.60;;;;;;4795322;29;20092;-84
2022/06/02 13:42:30;;;;;;;0.50;0.20;;;31.10;39.30;;;;;;4759072;30;20143;-78
2022/06/02 13:45:34;;;;;;;0.20;0.15;;;31.30;39.20;;;;;;4787379;29;20506;-78
2022/06/02 13:48:20;;;;;;;0.40;0.20;;;30.20;39.60;;;;;;4800336;29;20059;-80
2022/06/02 13:51:15;;;;;;;0.65;0.10;;;29.10;40.40;;;;;;4791790;29;20055;-81
2022/06/02 13:57:47;;;;;;;0.95;0.28;;;28.20;41.10;;;;;;4780363;30;20117;-82
2022/06/02 14:00:38;;;;;;;0.47;0.20;;;27.50;41.40;;;;;;4785864;29;20047;-82
2022/06/02 14:03:11;;;;;;;0.45;0.20;;;28.20;41.00;;;;;;4799208;29;20075;-85
2022/06/02 14:06:06;;;;;;;1.15;0.35;;;28.00;40.10;;;;;;4790505;30;20390;-83
2022/06/02 14:09:02;;;;;;;0.50;0.30;;;27.10;40.70;;;;;;4789324;29;20055;-87
2022/06/02 14:11:52;;;;;;;0.43;0.30;;;26.00;41.50;;;;;;4797701;29;20065;-79
2022/06/02 14:15:09;;;;;;;0.55;0.20;;;25.60;42.40;;;;;;4793059;29;20059;-83
2022/06/02 14:17:55;;;;;;;0.70;0.20;;;25.90;41.50;;;;;;4782747;30;20483;-80
2022/06/02 14:21:01;;;;;;;0.80;0.30;;;25.30;41.80;;;;;;4785190;29;20516;-78
2022/06/02 14:23:54;;;;;;;0.60;0.30;;;25.50;42.00;;;;;;4770825;30;20156;-77
2022/06/02 14:26:24;;;;;;;0.60;0.20;;;27.10;40.80;;;;;;4791395;29;20503;-78
2022/06/02 14:29:09;;;;;;;0.77;0.20;;;28.40;39.40;;;;;;4797481;29;20047;-79
2022/06/02 14:31:45;;;;;;;0.30;0.20;;;29.60;38.60;;;;;;4791353;29;20117;-77
2022/06/02 14:34:43;;;;;;;0.20;0.10;;;30.30;37.90;;;;;;4810724;29;20047;-79
2022/06/02 14:37:13;;;;;;;;;;;30.80;37.20;;;;;;4812837;29;20409;-80
2022/06/02 14:39:53;;;;;;;0.40;0.20;;;29.90;37.40;;;;;;4791398;29;19989;-81
2022/06/02 14:45:42;;;;;;;0.65;0.45;;;27.80;39.00;;;;;;4773578;30;20050;-79
2022/06/02 14:48:38;;;;;;;0.30;0.20;;;26.80;40.00;;;;;;4803438;29;20117;-79
2022/06/02 14:51:27;;;;;;;1.20;0.30;;;26.20;40.40;;;;;;4792463;29;20055;-80